createdAt,value
2024-03-05T00:03:58.711Z,23.60
2024-03-05T00:09:01.659Z,24.73
2024-03-05T00:14:05.346Z,21.70
2024-03-05T00:19:09.679Z,23.83
2024-03-05T00:24:12.508Z,25.83
2024-03-05T00:29:17.126Z,26.10
2024-03-05T00:34:19.976Z,25.70
2024-03-05T00:39:22.876Z,24.00
2024-03-05T00:44:25.843Z,21.00
2024-03-05T00:49:30.423Z,24.80
2024-03-05T00:54:33.474Z,23.80
2024-03-05T00:59:36.662Z,26.93
2024-03-05T01:04:39.868Z,22.73
2024-03-05T01:09:42.802Z,22.83
2024-03-05T01:14:46.101Z,22.23
2024-03-05T01:19:49.323Z,21.17
2024-03-05T01:24:52.393Z,22.27
2024-03-05T01:29:55.425Z,25.40
2024-03-05T01:34:58.319Z,20.63
2024-03-05T01:40:01.361Z,22.13
2024-03-05T01:45:05.069Z,19.53
2024-03-05T01:50:10.631Z,23.40
2024-03-05T01:55:16.407Z,24.20
2024-03-05T02:00:21.973Z,22.43
2024-03-05T02:05:25.482Z,22.30
2024-03-05T02:10:28.714Z,22.40
2024-03-05T02:15:31.710Z,24.37
2024-03-05T02:20:35.124Z,20.13
2024-03-05T02:25:38.064Z,23.53
2024-03-05T02:30:41.510Z,23.27
2024-03-05T02:35:47.566Z,21.97
2024-03-05T02:40:50.383Z,22.23
2024-03-05T02:45:53.240Z,21.20
2024-03-05T02:50:56.441Z,21.37
2024-03-05T02:55:59.279Z,18.17
2024-03-05T03:01:03.314Z,19.30
2024-03-05T03:06:06.407Z,21.60
2024-03-05T03:11:09.910Z,22.07
2024-03-05T03:16:13.755Z,24.60
2024-03-05T03:21:17.155Z,21.27
2024-03-05T03:26:19.947Z,20.27
2024-03-05T03:31:26.910Z,18.00
2024-03-05T03:36:29.803Z,20.97
2024-03-05T03:41:32.688Z,23.20
2024-03-05T03:46:36.183Z,22.43
2024-03-05T03:51:39.831Z,19.77
2024-03-05T03:56:42.640Z,19.73
2024-03-05T04:01:50.956Z,22.03
2024-03-05T04:06:53.983Z,20.00
2024-03-05T04:11:56.992Z,21.73
2024-03-05T04:16:59.872Z,21.67
2024-03-05T04:22:03.485Z,20.33
2024-03-05T04:27:08.650Z,18.10
2024-03-05T04:32:11.646Z,18.07
2024-03-05T04:37:15.093Z,17.20
2024-03-05T04:42:18.039Z,19.17
2024-03-05T04:47:21.794Z,16.47
2024-03-05T04:52:24.743Z,16.50
2024-03-05T04:57:27.612Z,12.50
2024-03-05T05:02:30.436Z,12.80
2024-03-05T05:07:34.770Z,12.33
2024-03-05T05:12:40.660Z,11.03
2024-03-05T05:17:45.957Z,10.37
2024-03-05T05:22:49.126Z,10.77
2024-03-05T05:27:52.827Z,11.23
2024-03-05T05:32:56.248Z,11.07
2024-03-05T05:38:00.110Z,11.40
2024-03-05T05:43:03.027Z,11.43
2024-03-05T05:48:06.581Z,12.03
2024-03-05T05:53:10.015Z,11.00
2024-03-05T05:58:14.489Z,11.90
2024-03-05T06:03:18.177Z,14.13
2024-03-05T06:08:21.907Z,9.77
2024-03-05T06:13:25.683Z,10.50
2024-03-05T06:18:30.459Z,12.50
2024-03-05T06:23:33.443Z,10.27
2024-03-05T06:28:39.094Z,9.20
2024-03-05T06:33:42.170Z,8.83
2024-03-05T06:38:45.242Z,8.77
2024-03-05T06:43:49.092Z,9.27
2024-03-05T06:48:53.607Z,6.80
2024-03-05T06:54:15.027Z,7.20
2024-03-05T06:59:19.581Z,8.70
2024-03-05T07:04:22.528Z,7.43
2024-03-05T07:09:31.958Z,6.40
2024-03-05T07:14:34.979Z,8.30
2024-03-05T07:19:38.659Z,6.60
2024-03-05T07:24:42.069Z,8.63
2024-03-05T07:29:44.896Z,6.17
2024-03-05T07:34:47.840Z,6.13
2024-03-05T07:39:50.693Z,6.87
2024-03-05T07:44:53.513Z,7.17
2024-03-05T07:49:56.793Z,5.07
2024-03-05T07:54:59.980Z,6.87
2024-03-05T08:00:09.847Z,7.40
2024-03-05T08:05:22.918Z,6.23
2024-03-05T08:10:26.623Z,6.77
2024-03-05T08:15:29.913Z,8.03
2024-03-05T08:20:32.838Z,8.33
2024-03-05T08:25:36.137Z,7.70
2024-03-05T08:30:38.989Z,8.30
2024-03-05T08:35:41.872Z,9.83
2024-03-05T08:40:44.807Z,8.23
2024-03-05T08:45:47.944Z,9.33
2024-03-05T08:50:51.338Z,6.93
2024-03-05T08:55:54.121Z,5.33
2024-03-05T09:00:57.148Z,6.10
2024-03-05T09:05:59.974Z,10.23
2024-03-05T09:11:06.713Z,5.67
2024-03-05T09:16:10.839Z,8.17
2024-03-05T09:21:14.293Z,9.53
2024-03-05T09:26:17.470Z,7.90
2024-03-05T09:31:20.559Z,6.67
2024-03-05T09:36:24.629Z,6.63
2024-03-05T09:41:29.120Z,4.80
2024-03-05T09:46:33.047Z,6.07
2024-03-05T09:51:37.777Z,6.40
2024-03-05T09:56:46.835Z,5.97
2024-03-05T10:01:51.225Z,6.53
2024-03-05T10:06:54.681Z,6.77
2024-03-05T10:11:58.144Z,5.83
2024-03-05T10:17:02.484Z,5.63
2024-03-05T10:22:12.088Z,4.47
2024-03-05T10:27:28.907Z,8.13
2024-03-05T10:32:31.847Z,5.60
2024-03-05T10:37:34.845Z,5.83
2024-03-05T10:42:39.711Z,4.83
2024-03-05T10:47:44.170Z,6.17
2024-03-05T10:52:55.547Z,6.67
2024-03-05T10:58:15.200Z,4.33
2024-03-05T11:03:41.001Z,4.60
2024-03-05T11:08:46.234Z,4.23
2024-03-05T11:13:51.508Z,5.50
2024-03-05T11:18:54.645Z,4.73
2024-03-05T11:23:59.352Z,5.73
2024-03-05T11:29:31.619Z,4.37
2024-03-05T11:34:36.760Z,2.73
2024-03-05T11:39:47.660Z,5.10
2024-03-05T11:44:51.386Z,3.60
2024-03-05T11:49:54.621Z,3.80
2024-03-05T11:55:07.286Z,6.27
2024-03-05T12:00:23.280Z,5.57
2024-03-05T12:05:31.089Z,5.93
2024-03-05T12:10:40.365Z,7.83
2024-03-05T12:15:43.324Z,4.60
2024-03-05T12:20:47.484Z,2.50
2024-03-05T12:25:50.486Z,2.60
2024-03-05T12:30:54.853Z,2.73
2024-03-05T12:35:59.761Z,2.50
2024-03-05T12:41:02.903Z,4.70
2024-03-05T12:46:05.844Z,2.50
2024-03-05T12:51:10.630Z,3.20
2024-03-05T12:56:17.095Z,3.10
2024-03-05T13:01:20.609Z,6.27
2024-03-05T13:06:23.590Z,3.30
2024-03-05T13:11:26.986Z,2.43
2024-03-05T13:16:30.735Z,3.00
2024-03-05T13:21:35.151Z,2.37
2024-03-05T13:26:49.078Z,1.90
2024-03-05T13:31:52.238Z,2.50
2024-03-05T13:36:55.339Z,3.07
2024-03-05T13:41:58.403Z,2.80
2024-03-05T13:47:01.620Z,3.17
2024-03-05T13:52:04.841Z,1.77
2024-03-05T13:57:08.870Z,3.33
2024-03-05T14:02:12.018Z,1.83
2024-03-05T14:07:16.580Z,3.60
2024-03-05T14:12:19.504Z,2.13
2024-03-05T14:17:22.938Z,3.27
2024-03-05T14:22:25.760Z,2.13
2024-03-05T14:27:28.730Z,2.40
2024-03-05T14:32:32.020Z,4.10
2024-03-05T14:37:35.007Z,2.90
2024-03-05T14:42:40.631Z,3.00
2024-03-05T14:47:45.277Z,4.57
2024-03-05T14:52:48.241Z,6.07
2024-03-05T14:57:51.544Z,2.07
2024-03-05T15:02:55.233Z,2.07
2024-03-05T15:07:58.645Z,1.83
2024-03-05T15:13:01.817Z,2.07
2024-03-05T15:18:06.634Z,2.50
2024-03-05T15:23:11.480Z,2.87
2024-03-05T15:28:14.545Z,1.57
2024-03-05T15:33:17.953Z,3.23
2024-03-05T15:38:21.862Z,4.00
2024-03-05T15:43:25.016Z,2.20
2024-03-05T15:48:28.003Z,3.53
2024-03-05T15:53:31.320Z,4.23
2024-03-05T15:58:43.653Z,3.00
2024-03-05T16:08:54.442Z,3.67
2024-03-05T16:13:57.349Z,4.03
2024-03-05T16:19:00.229Z,2.00
2024-03-05T16:24:03.722Z,3.60
2024-03-05T16:29:07.922Z,3.30
2024-03-05T16:34:13.401Z,3.50
2024-03-05T16:39:19.826Z,2.13
2024-03-05T16:44:23.800Z,7.20
2024-03-05T16:49:27.295Z,5.10
2024-03-05T16:54:30.128Z,2.20
2024-03-05T16:59:33.196Z,2.03
2024-03-05T17:04:36.226Z,2.43
2024-03-05T17:09:39.057Z,3.80
2024-03-05T17:14:44.166Z,2.53
2024-03-05T17:19:47.959Z,2.83
2024-03-05T17:24:52.073Z,3.97
2024-03-05T17:29:54.945Z,4.57
2024-03-05T17:35:00.848Z,5.70
2024-03-05T17:40:10.137Z,2.90
2024-03-05T17:45:15.401Z,3.83
2024-03-05T17:50:18.359Z,4.70
2024-03-05T17:55:22.057Z,6.63
2024-03-05T18:00:28.300Z,3.20
2024-03-05T18:05:31.801Z,5.23
2024-03-05T18:10:37.127Z,3.97
2024-03-05T18:15:40.377Z,6.97
2024-03-05T18:20:45.018Z,3.70
2024-03-05T18:25:49.426Z,4.43
2024-03-05T18:30:52.694Z,5.10
2024-03-05T18:35:57.602Z,4.60
2024-03-05T18:41:02.212Z,2.80
2024-03-05T18:46:07.080Z,2.93
2024-03-05T18:51:10.946Z,4.67
2024-03-05T18:56:14.384Z,2.87
2024-03-05T19:01:17.664Z,2.67
2024-03-05T19:06:24.123Z,2.73
2024-03-05T19:11:28.166Z,3.47
2024-03-05T19:16:31.486Z,3.40
2024-03-05T19:21:34.386Z,4.40
2024-03-05T19:26:37.185Z,5.57
2024-03-05T19:31:45.954Z,2.70
2024-03-05T19:36:48.817Z,2.67
2024-03-05T19:41:52.327Z,5.00
2024-03-05T19:46:55.225Z,2.60
2024-03-05T19:51:59.624Z,2.70
2024-03-05T19:57:04.356Z,3.40
2024-03-05T20:02:07.661Z,3.67
2024-03-05T20:07:13.349Z,5.37
2024-03-05T20:12:16.485Z,4.50
2024-03-05T20:17:23.220Z,4.50
2024-03-05T20:22:29.299Z,5.00
2024-03-05T20:27:32.481Z,5.80
2024-03-05T20:32:35.300Z,3.90
2024-03-05T20:37:38.108Z,6.03
2024-03-05T20:42:45.000Z,3.87
2024-03-05T20:47:49.346Z,8.60
2024-03-05T20:52:52.367Z,3.30
2024-03-05T20:57:55.421Z,5.53
2024-03-05T21:02:58.666Z,3.67
2024-03-05T21:08:01.558Z,5.60
2024-03-05T21:13:05.015Z,5.30
2024-03-05T21:18:10.940Z,6.60
2024-03-05T21:23:16.741Z,3.90
2024-03-05T21:28:21.079Z,12.07
2024-03-05T21:33:25.330Z,9.60
2024-03-05T21:38:28.900Z,12.00
2024-03-05T21:43:31.703Z,7.60
2024-03-05T21:48:35.060Z,4.63
2024-03-05T21:53:37.927Z,8.60
2024-03-05T21:58:43.388Z,5.43
2024-03-05T22:03:46.386Z,7.10
2024-03-05T22:08:50.056Z,5.53
2024-03-05T22:13:52.986Z,4.83
2024-03-05T22:18:55.946Z,5.67
2024-03-05T22:23:59.914Z,8.00
2024-03-05T22:29:04.155Z,4.50
2024-03-05T22:34:06.976Z,4.80
2024-03-05T22:39:09.869Z,2.83
2024-03-05T22:44:12.843Z,4.27
2024-03-05T22:49:15.881Z,3.60
2024-03-05T22:54:18.752Z,2.60
2024-03-05T22:59:21.641Z,2.63
2024-03-05T23:04:24.476Z,4.80
2024-03-05T23:09:27.385Z,4.07
2024-03-05T23:14:31.908Z,2.50
2024-03-05T23:19:34.743Z,3.57
2024-03-05T23:24:37.629Z,7.83
2024-03-05T23:29:41.511Z,3.60
2024-03-05T23:34:44.417Z,5.43
2024-03-05T23:39:47.209Z,3.70
2024-03-05T23:44:50.132Z,5.87
2024-03-05T23:49:53.924Z,4.10
2024-03-05T23:55:00.206Z,4.70
